< < Back
Terminal Aerodrome Forecast


Current Version              Previous Versions:   1  2  3  4  5  6  7  8  9  

Terminal Aerodrome Forecast

264
FTUS42 KGSP 070537
TAFHKY
TAF
KHKY 070537Z 0706/0806 00000KT P6SM FEW040 SCT060
     FM071400 30003KT P6SM FEW045
     FM071700 21008KT P6SM SCT060
     FM072300 00000KT P6SM SCT250=

Latest METAR

418
SAUS70 KWBC 080200 RRD
MTRHKY
METAR KHKY 080153Z AUTO 21006KT 10SM CLR 28/18 A3011 RMK AO2 SLP170
T02780178


USA.gov is the U.S. government's official web portal to all federal, state and local government web resources and services.